Doniphan, MO

2:25 AM CDT on September 25, 2016 (GMT -0500)
RAWS | | Change Station

Elev 634 ft 36.63 °N, 90.82 °W | Updated 32 minutes ago

Clear
Clear
70.0 °F
Feels Like 70.0 °F
N
1.0
Wind Variable Wind from NE
Gusts 2.0 mph

Today
High -- | Low -- °F
--% Chance of Precip.
Yesterday
High -- | Low -- °F
Precip. -- in
Pressure 30.03 in
Visibility 10.0 miles
Clouds Clear
Dew Point 69.0 °F
Humidity 96%
Rainfall in
Snow Depth Not available.
6:54 AM 6:54 PM
Waning Crescent, 30% visible
METAR KARG 250715Z AUTO 34004KT 10SM CLR 23/21 A3003 RMK AO1
Pressure 30.03 in
Visibility 10.0 miles
Clouds Clear
Dew Point 69.0 °F
Humidity 96%
Rainfall in
Snow Depth Not available.
6:54 AM 6:54 PM
Waning Crescent, 30% visible
METAR KARG 250715Z AUTO 34004KT 10SM CLR 23/21 A3003 RMK AO1

10-Day Weather Forecast

Almanac

Astronomy

Sep. 25, 2016 Rise Set
Actual Time
Civil Twilight
Nautical Twilight
Astronomical Twilight
Moon
Length of Visible Light
Length of Day
Tomorrow will be .
, % of the Moon is Illuminated

Today's Extremes

State Highs State Lows

Community

WunderPhotos

Upload Photos

1,941,554 photos uploaded!

WunderBlog® & News

Nearby

Air Quality

  Air Quality AQ Index Pollutant
Not available.

Snow Depth

Station Depth Elevation

Earthquake Activity

City Distance Mag. Time & Date
Minimum magnitude displayed is 2.5.

Coastal Water Temperatures

Place Temperature

Stations

Nearby Weather Stations

Station Location Temp. Windchill Dew Point Humidity Wind Precip. Elev Updated Type
                   

Watches & Warnings

There are currently no watches in effect.